Time,TemperatureF,DewpointF,PressureIn,WindDirection,WindDirectionDegrees,WindSpeedMPH,WindSpeedGustMPH,Humidity,HourlyPrecipIn,Conditions,Clouds,dailyrainin,SoftwareType,DateUTC
2013-12-11 00:22:00,32.0,19.0,-100.00,North,-999,-999.0,-999.0,60,0.00,,,0.00,,2013-12-11 06:22:00,
2013-12-11 00:52:00,31.0,20.0,-100.00,North,-999,-999.0,-999.0,64,0.00,,,0.00,,2013-12-11 06:52:00,
2013-12-11 01:22:00,30.0,23.0,-100.00,North,-999,-999.0,-999.0,76,0.00,,,0.00,,2013-12-11 07:22:00,
2013-12-11 01:52:00,30.0,23.0,-100.00,North,-999,-999.0,-999.0,76,0.00,,,0.00,,2013-12-11 07:52:00,
2013-12-11 02:21:00,29.0,23.0,-100.00,North,-999,-999.0,-999.0,80,0.00,,,0.00,,2013-12-11 08:21:00,
2013-12-11 02:52:00,28.0,23.0,-100.00,North,-999,-999.0,-999.0,80,0.00,,,0.00,,2013-12-11 08:52:00,
2013-12-11 03:22:00,29.0,23.0,-100.00,North,-999,-999.0,-999.0,79,0.00,,,0.00,,2013-12-11 09:22:00,
2013-12-11 03:53:00,29.0,23.0,-100.00,North,-999,-999.0,-999.0,77,0.00,,,0.00,,2013-12-11 09:53:00,
2013-12-11 04:23:00,29.0,23.0,-100.00,North,-999,-999.0,-999.0,78,0.00,,,0.00,,2013-12-11 10:23:00,
2013-12-11 04:52:00,29.0,22.0,-100.00,North,-999,-999.0,-999.0,77,0.00,,,0.00,,2013-12-11 10:52:00,
2013-12-11 05:12:00,28.0,22.0,-100.00,North,-999,-999.0,-999.0,78,0.00,,,0.00,,2013-12-11 11:12:00,
2013-12-11 05:22:00,28.0,22.0,-100.00,North,-999,-999.0,-999.0,78,0.00,,,0.00,,2013-12-11 11:22:00,
2013-12-11 05:42:00,28.0,23.0,-100.00,North,-999,-999.0,-999.0,80,0.00,,,0.00,,2013-12-11 11:42:00,
2013-12-11 05:53:00,28.0,23.0,-100.00,North,-999,-999.0,-999.0,80,0.00,,,0.00,,2013-12-11 11:53:00,
2013-12-11 06:22:00,28.0,22.0,-100.00,North,-999,-999.0,-999.0,77,-99.99,,,0.00,,2013-12-11 12:22:00,
2013-12-11 06:32:00,28.0,22.0,-100.00,North,-999,-999.0,-999.0,77,-99.99,,,0.00,,2013-12-11 12:32:00,
2013-12-11 06:52:00,29.0,22.0,-100.00,North,-999,-999.0,-999.0,76,-99.99,,,0.00,,2013-12-11 12:52:00,
2013-12-11 07:02:00,29.0,22.0,-100.00,North,-999,-999.0,-999.0,76,-99.99,,,0.00,,2013-12-11 13:02:00,
2013-12-11 07:12:00,29.0,22.0,-100.00,North,-999,-999.0,-999.0,76,-99.99,,,0.00,,2013-12-11 13:12:00,
2013-12-11 07:22:00,29.0,22.0,-100.00,North,-999,-999.0,-999.0,76,-99.99,,,0.00,,2013-12-11 13:22:00,
2013-12-11 12:22:00,46.0,20.0,-100.00,North,-999,-999.0,-999.0,36,0.00,,,0.00,,2013-12-11 18:22:00,
2013-12-11 12:52:00,47.0,22.0,-100.00,North,-999,-999.0,-999.0,36,0.00,,,0.00,,2013-12-11 18:52:00,
2013-12-11 13:22:00,48.0,22.0,-100.00,North,-999,-999.0,-999.0,36,0.00,,,0.00,,2013-12-11 19:22:00,
2013-12-11 13:42:00,49.0,24.0,-100.00,North,-999,-999.0,-999.0,37,0.00,,,0.00,,2013-12-11 19:42:00,
2013-12-11 13:52:00,49.0,24.0,-100.00,North,-999,-999.0,-999.0,37,0.00,,,0.00,,2013-12-11 19:52:00,
2013-12-11 14:02:00,49.0,24.0,-100.00,North,-999,-999.0,-999.0,37,0.00,,,0.00,,2013-12-11 20:02:00,
2013-12-11 14:22:00,52.0,25.0,-100.00,North,-999,-999.0,-999.0,35,0.00,,,0.00,,2013-12-11 20:22:00,
2013-12-11 14:52:00,52.0,25.0,-100.00,North,-999,-999.0,-999.0,35,-99.99,,,0.00,,2013-12-11 20:52:00,
2013-12-11 15:02:00,52.0,25.0,-100.00,North,-999,-999.0,-999.0,35,-99.99,,,0.00,,2013-12-11 21:02:00,
2013-12-11 15:22:00,52.0,26.0,-100.00,North,-999,-999.0,-999.0,37,0.00,,,0.00,,2013-12-11 21:22:00,
2013-12-11 15:42:00,50.0,26.0,-100.00,North,-999,-999.0,-999.0,39,-99.99,,,0.00,,2013-12-11 21:42:00,
2013-12-11 15:53:00,51.0,26.0,-100.00,North,-999,-999.0,-999.0,39,0.00,,,-99.99,,2013-12-11 21:53:00,
2013-12-11 16:13:00,50.0,26.0,-100.00,North,-999,-999.0,-999.0,39,-99.99,,,0.00,,2013-12-11 22:13:00,
2013-12-11 16:23:00,50.0,26.0,-100.00,North,-999,-999.0,-999.0,39,-99.99,,,0.00,,2013-12-11 22:23:00,
2013-12-11 16:33:00,50.0,26.0,-100.00,North,-999,-999.0,-999.0,39,-99.99,,,0.00,,2013-12-11 22:33:00,